Time;durP1;ratioP1;P1;durP2;ratioP2;P2;SDS_P1;SDS_P2;PMS_P1;PMS_P2;Temp;Humidity;BMP_temperature;BMP_pressure;BME280_temperature;BME280_humidity;BME280_pressure;Samples;Min_cycle;Max_cycle;Signal;HPM_P1;HPM_P2
2022/09/25 00:00:31;;;;;;;8.33;6.40;;;;;;;13.85;88.81;101233.94;6188193;28;20236;-79
2022/09/25 00:03:52;;;;;;;6.77;5.77;;;;;;;13.91;88.13;101230.66;6224188;28;20236;-79
2022/09/25 00:07:13;;;;;;;9.63;5.53;;;;;;;13.87;88.14;101231.94;6219104;28;20236;-80
2022/09/25 00:10:40;;;;;;;7.03;5.00;;;;;;;13.88;88.22;101230.94;6227343;28;20240;-80
2022/09/25 00:14:02;;;;;;;9.27;6.10;;;;;;;13.94;88.09;101235.75;6224844;28;20236;-79
2022/09/25 00:17:23;;;;;;;9.23;7.17;;;;;;;13.91;87.76;101225.25;6219770;28;20601;-80
2022/09/25 00:20:45;;;;;;;7.20;5.77;;;;;;;13.86;88.14;101226.66;6221268;28;20232;-80
2022/09/25 00:24:08;;;;;;;11.13;6.97;;;;;;;13.87;88.64;101222.97;6230247;28;20240;-81
2022/09/25 00:27:31;;;;;;;8.80;5.70;;;;;;;13.93;88.49;101225.09;6226963;28;20320;-79
2022/09/25 00:30:52;;;;;;;8.03;5.57;;;;;;;13.94;88.01;101227.63;6224881;28;20244;-81
2022/09/25 00:34:13;;;;;;;11.17;7.80;;;;;;;13.95;87.99;101228.50;6224061;28;20260;-79
2022/09/25 00:37:35;;;;;;;7.73;5.87;;;;;;;14.00;87.99;101229.75;6220202;28;20804;-79
2022/09/25 00:40:56;;;;;;;9.70;6.60;;;;;;;14.04;87.69;101222.19;6218433;28;20236;-78
2022/09/25 00:44:59;;;;;;;9.47;7.53;;;;;;;14.02;87.81;101221.44;6224980;28;20232;-80
2022/09/25 00:48:22;;;;;;;9.57;6.50;;;;;;;13.94;87.86;101221.34;6189356;28;20233;-80
2022/09/25 00:51:46;;;;;;;10.20;6.23;;;;;;;13.90;88.36;101231.66;6200738;28;20241;-78
2022/09/25 00:55:11;;;;;;;11.47;6.37;;;;;;;13.92;88.42;101226.06;6199965;28;20249;-79
2022/09/25 00:58:35;;;;;;;10.77;7.67;;;;;;;13.90;88.30;101226.22;6209260;28;20232;-80
2022/09/25 01:01:56;;;;;;;11.17;8.03;;;;;;;13.86;88.50;101229.38;6197336;28;20245;-78
2022/09/25 01:05:24;;;;;;;11.97;7.60;;;;;;;13.90;88.82;101228.94;6220034;28;20232;-79
2022/09/25 01:08:46;;;;;;;14.37;8.03;;;;;;;13.93;88.33;101219.66;6191421;28;20220;-78
2022/09/25 01:12:08;;;;;;;10.33;6.67;;;;;;;13.88;88.20;101220.09;6227138;28;20267;-78
2022/09/25 01:15:36;;;;;;;11.83;7.00;;;;;;;13.87;88.69;101214.84;6229164;28;20224;-78
2022/09/25 01:19:06;;;;;;;14.17;8.57;;;;;;;13.89;88.69;101221.81;6219416;28;20701;-79
2022/09/25 01:22:46;;;;;;;12.13;8.00;;;;;;;13.97;88.48;101221.94;6203756;28;20252;-78
2022/09/25 01:26:27;;;;;;;10.57;6.63;;;;;;;13.97;88.29;101221.94;6212522;28;20232;-79
2022/09/25 01:29:58;;;;;;;12.50;8.30;;;;;;;13.89;88.35;101223.69;6218685;28;20497;-79
2022/09/25 01:33:27;;;;;;;10.40;7.00;;;;;;;13.90;88.27;101223.50;6202013;28;20658;-78
2022/09/25 01:36:56;;;;;;;12.33;8.20;;;;;;;13.88;88.72;101219.25;6196358;28;20235;-79
2022/09/25 01:40:25;;;;;;;11.40;7.23;;;;;;;13.85;88.41;101222.28;6210488;28;20804;-79
2022/09/25 01:43:52;;;;;;;14.40;7.83;;;;;;;13.88;88.65;101225.53;6195659;28;21709;-79
2022/09/25 01:47:21;;;;;;;9.77;7.07;;;;;;;13.93;88.58;101225.94;6199085;28;20224;-79
2022/09/25 01:50:46;;;;;;;11.60;7.77;;;;;;;13.87;88.32;101222.97;6220670;28;20314;-79
2022/09/25 01:54:10;;;;;;;11.43;7.43;;;;;;;13.79;88.97;101223.69;6157913;28;20230;-80
2022/09/25 01:57:37;;;;;;;9.53;7.07;;;;;;;13.81;89.18;101216.28;6176754;28;20228;-79
2022/09/25 02:01:05;;;;;;;14.60;8.53;;;;;;;13.89;89.12;101221.81;6172695;28;20225;-78
2022/09/25 02:04:31;;;;;;;14.87;7.93;;;;;;;13.94;88.56;101211.38;6198352;28;20244;-78
2022/09/25 02:07:59;;;;;;;16.00;8.87;;;;;;;13.99;88.10;101217.22;6175178;28;20639;-78
2022/09/25 02:11:28;;;;;;;11.27;6.77;;;;;;;13.95;87.96;101217.66;6174031;28;20227;-77
2022/09/25 02:14:53;;;;;;;12.67;7.00;;;;;;;13.92;88.00;101216.09;6195498;28;20258;-78
2022/09/25 02:22:03;;;;;;;15.20;9.63;;;;;;;13.89;88.65;101220.97;6193658;28;20233;-78
2022/09/25 02:25:34;;;;;;;13.80;6.73;;;;;;;13.83;88.86;101216.16;6223976;28;20255;-77
2022/09/25 02:28:56;;;;;;;16.37;7.80;;;;;;;13.84;88.75;101221.41;6230388;28;20228;-78
2022/09/25 02:32:21;;;;;;;12.33;7.40;;;;;;;13.85;88.72;101216.84;6205570;28;20587;-79
2022/09/25 02:35:42;;;;;;;14.90;8.77;;;;;;;13.86;88.77;101213.13;6223986;28;20256;-77
2022/09/25 02:39:08;;;;;;;11.57;7.50;;;;;;;13.88;88.77;101214.69;6226951;28;21938;-77
2022/09/25 02:42:38;;;;;;;10.53;7.17;;;;;;;13.92;88.22;101217.94;6184233;28;20639;-78
2022/09/25 02:46:09;;;;;;;15.77;8.50;;;;;;;13.89;88.39;101218.25;6199203;28;20308;-78
2022/09/25 02:49:40;;;;;;;9.33;6.67;;;;;;;13.76;88.82;101215.88;6209745;28;20330;-78
2022/09/25 02:53:10;;;;;;;11.77;7.73;;;;;;;13.75;89.03;101216.88;6224650;28;20646;-79
2022/09/25 02:56:35;;;;;;;10.53;6.77;;;;;;;13.81;88.93;101220.84;6213299;28;22130;-78
2022/09/25 03:00:01;;;;;;;9.77;7.97;;;;;;;13.81;89.03;101213.56;6221876;28;20586;-78
2022/09/25 03:03:25;;;;;;;13.17;6.53;;;;;;;13.81;89.05;101215.44;6220254;28;20233;-79
2022/09/25 03:06:47;;;;;;;10.93;6.70;;;;;;;13.74;89.66;101209.75;6216656;28;20880;-78
2022/09/25 03:10:09;;;;;;;10.97;7.00;;;;;;;13.77;89.25;101206.72;6226418;28;20324;-78
2022/09/25 03:13:32;;;;;;;9.77;6.13;;;;;;;13.81;88.95;101207.31;6179415;28;20241;-78
2022/09/25 03:16:56;;;;;;;10.67;5.80;;;;;;;13.84;89.16;101213.28;6202988;28;20610;-78
2022/09/25 03:20:17;;;;;;;8.67;6.20;;;;;;;13.81;88.89;101208.13;6191024;28;20245;-77
2022/09/25 03:23:39;;;;;;;6.03;4.67;;;;;;;13.83;88.91;101213.44;6204676;28;20233;-77
2022/09/25 03:26:59;;;;;;;8.37;6.10;;;;;;;13.80;88.91;101211.88;6196877;28;20217;-78
2022/09/25 03:30:23;;;;;;;16.27;7.90;;;;;;;13.82;88.86;101211.72;6193030;28;20496;-78
2022/09/25 03:33:44;;;;;;;9.03;5.90;;;;;;;13.80;89.43;101206.44;6198622;28;20237;-77
2022/09/25 03:37:05;;;;;;;8.10;4.93;;;;;;;13.78;88.95;101203.03;6190623;28;20229;-78
2022/09/25 03:40:26;;;;;;;8.90;6.13;;;;;;;13.74;89.34;101203.47;6193043;28;21766;-77
2022/09/25 03:43:50;;;;;;;7.50;5.33;;;;;;;13.75;89.01;101200.59;6195882;28;20599;-77
2022/09/25 03:47:12;;;;;;;8.17;5.40;;;;;;;13.72;89.30;101206.34;6177935;28;20236;-78
2022/09/25 03:50:34;;;;;;;8.93;5.50;;;;;;;13.75;89.31;101203.31;6195294;28;20229;-77
2022/09/25 03:53:55;;;;;;;7.80;4.77;;;;;;;13.77;89.07;101204.03;6172857;28;20229;-77
2022/09/25 03:57:16;;;;;;;6.73;4.63;;;;;;;13.76;89.26;101202.31;6196920;28;20867;-78
2022/09/25 04:00:38;;;;;;;11.80;6.90;;;;;;;13.77;89.06;101201.31;6196294;28;20256;-78
2022/09/25 04:04:02;;;;;;;8.90;6.73;;;;;;;13.75;88.99;101197.91;6216338;28;20598;-78
2022/09/25 04:07:23;;;;;;;9.67;7.33;;;;;;;13.77;88.97;101200.47;6221093;28;20225;-78
2022/09/25 04:10:44;;;;;;;10.20;7.37;;;;;;;13.77;89.02;101195.88;6218267;28;20232;-78
2022/09/25 04:14:05;;;;;;;8.17;6.53;;;;;;;13.79;88.58;101193.06;6220807;28;20237;-78
2022/09/25 04:17:28;;;;;;;14.47;6.67;;;;;;;13.71;89.28;101193.78;6219256;28;20229;-78
2022/09/25 04:20:50;;;;;;;9.03;6.87;;;;;;;13.73;89.42;101190.91;6217749;28;20244;-78
2022/09/25 04:27:50;;;;;;;10.30;8.30;;;;;;;13.69;89.63;101194.91;6223391;28;20614;-79
2022/09/25 04:31:11;;;;;;;8.10;6.17;;;;;;;13.67;89.43;101195.06;6222058;28;20237;-78
2022/09/25 04:34:31;;;;;;;8.13;5.90;;;;;;;13.68;89.52;101198.66;6221761;28;20229;-79
2022/09/25 04:37:53;;;;;;;11.33;8.03;;;;;;;13.62;89.93;101202.81;6220815;28;20220;-78
2022/09/25 04:41:16;;;;;;;9.80;7.43;;;;;;;13.67;89.62;101203.22;6219228;28;20237;-79
2022/09/25 04:44:37;;;;;;;12.37;8.07;;;;;;;13.68;90.03;101199.50;6195828;28;20256;-78
2022/09/25 04:47:59;;;;;;;8.97;7.63;;;;;;;13.67;90.03;101205.91;6221532;28;20601;-78
2022/09/25 04:51:21;;;;;;;10.40;7.67;;;;;;;13.71;89.51;101201.03;6220992;28;20719;-78
2022/09/25 04:54:44;;;;;;;9.60;7.10;;;;;;;13.70;89.40;101194.78;6192328;28;20232;-77
2022/09/25 04:58:04;;;;;;;9.60;7.57;;;;;;;13.75;89.64;101206.03;6223250;28;20235;-77
2022/09/25 05:01:25;;;;;;;10.30;6.27;;;;;;;13.72;89.18;101191.94;6191438;28;20240;-77
2022/09/25 05:04:47;;;;;;;11.43;7.13;;;;;;;13.68;89.05;101191.38;6182559;28;20835;-76
2022/09/25 05:08:10;;;;;;;9.37;7.03;;;;;;;13.65;89.38;101194.38;6173849;28;20221;-77
2022/09/25 05:11:32;;;;;;;9.20;6.27;;;;;;;13.64;89.89;101193.50;6216538;28;20220;-77
2022/09/25 05:14:53;;;;;;;11.57;7.13;;;;;;;13.68;89.97;101199.50;6189086;28;20768;-78
2022/09/25 05:18:16;;;;;;;10.47;7.33;;;;;;;13.69;89.83;101197.63;6183399;28;20260;-78
2022/09/25 05:21:38;;;;;;;8.00;7.03;;;;;;;13.71;89.71;101201.03;6221602;28;20232;-78
2022/09/25 05:24:59;;;;;;;10.50;8.20;;;;;;;13.74;89.39;101200.75;6213309;28;20588;-78
2022/09/25 05:28:22;;;;;;;7.77;7.00;;;;;;;13.71;89.46;101206.47;6217073;28;20312;-78
2022/09/25 05:31:45;;;;;;;8.80;6.90;;;;;;;13.66;89.54;101196.09;6217739;28;20255;-77
2022/09/25 05:35:07;;;;;;;9.73;5.97;;;;;;;13.68;89.81;101199.50;6219660;28;20605;-77
2022/09/25 05:38:29;;;;;;;9.63;6.57;;;;;;;13.73;89.74;101207.16;6190733;28;20248;-78
2022/09/25 05:41:50;;;;;;;8.33;6.40;;;;;;;13.74;89.59;101198.06;6185901;28;20232;-78
2022/09/25 05:45:12;;;;;;;10.03;7.13;;;;;;;13.68;89.48;101190.53;6219653;28;21009;-77
2022/09/25 05:48:33;;;;;;;8.77;6.63;;;;;;;13.71;90.00;101193.78;6199635;28;20247;-78
2022/09/25 05:51:54;;;;;;;9.67;7.50;;;;;;;13.72;89.79;101192.78;6191431;28;20411;-78
2022/09/25 05:55:15;;;;;;;8.40;7.17;;;;;;;13.68;89.67;101191.38;6224675;28;20229;-78
2022/09/25 05:58:37;;;;;;;8.50;6.87;;;;;;;13.69;89.68;101189.50;6225641;28;20228;-77
2022/09/25 06:01:59;;;;;;;9.37;6.50;;;;;;;13.71;89.86;101196.50;6187826;28;20339;-77
2022/09/25 06:05:20;;;;;;;9.27;6.70;;;;;;;13.75;89.81;101191.66;6211260;28;20229;-78
2022/09/25 06:08:41;;;;;;;11.17;7.03;;;;;;;13.73;89.89;101190.91;6200113;28;20260;-78
2022/09/25 06:12:02;;;;;;;10.83;8.07;;;;;;;13.75;90.09;101195.19;6197092;28;20232;-78
2022/09/25 06:15:26;;;;;;;8.43;5.97;;;;;;;13.86;89.68;101184.16;6227512;28;20227;-77
2022/09/25 06:18:49;;;;;;;11.60;4.97;;;;;;;13.89;89.69;101192.00;6227257;28;20244;-77
2022/09/25 06:22:10;;;;;;;7.17;5.47;;;;;;;13.91;89.52;101187.28;6218459;28;20605;-77
2022/09/25 06:25:32;;;;;;;11.23;7.50;;;;;;;13.88;89.44;101184.88;6204677;28;20712;-77
2022/09/25 06:28:53;;;;;;;7.87;7.07;;;;;;;13.95;89.05;101185.13;6199195;28;20233;-78
2022/09/25 06:32:15;;;;;;;9.07;7.20;;;;;;;13.99;88.97;101192.81;6191375;28;20318;-77
2022/09/25 06:35:41;;;;;;;6.83;5.77;;;;;;;13.96;88.93;101193.09;6197153;28;20237;-78
2022/09/25 06:39:02;;;;;;;10.23;6.13;;;;;;;13.98;89.37;101188.38;6218023;28;20530;-77
2022/09/25 06:42:24;;;;;;;9.97;7.30;;;;;;;14.05;88.89;101194.91;6182459;28;20233;-78
2022/09/25 06:45:46;;;;;;;7.63;5.87;;;;;;;14.05;88.88;101186.78;6193593;28;20228;-78
2022/09/25 06:49:07;;;;;;;6.90;6.20;;;;;;;14.01;89.33;101187.22;6219676;28;20256;-75
2022/09/25 06:52:29;;;;;;;10.20;6.87;;;;;;;13.99;88.96;101181.09;6222550;28;20221;-77
2022/09/25 06:55:51;;;;;;;9.13;6.70;;;;;;;13.85;89.34;101184.31;6227486;28;20232;-79
2022/09/25 06:59:12;;;;;;;10.07;7.07;;;;;;;13.90;89.78;101191.00;6223766;28;20240;-77
2022/09/25 07:06:14;;;;;;;8.13;6.67;;;;;;;14.09;88.79;101182.75;6225202;28;20239;-78
2022/09/25 07:09:36;;;;;;;8.23;6.57;;;;;;;14.06;88.95;101193.91;6221787;28;20678;-78
2022/09/25 07:12:57;;;;;;;9.93;7.70;;;;;;;14.05;88.91;101196.78;6213530;28;20859;-78
2022/09/25 07:16:20;;;;;;;12.37;8.13;;;;;;;14.08;89.02;101193.78;6217834;28;20228;-78
2022/09/25 07:19:40;;;;;;;9.60;7.17;;;;;;;14.06;89.02;101193.91;6221717;28;20232;-78
2022/09/25 07:23:03;;;;;;;12.10;8.43;;;;;;;14.06;89.47;101196.59;6215032;28;20229;-78
2022/09/25 07:26:27;;;;;;;9.57;7.10;;;;;;;14.07;89.28;101200.19;6222019;28;20228;-79
2022/09/25 07:29:47;;;;;;;9.07;6.53;;;;;;;14.08;89.93;101201.91;6208580;28;20597;-78
2022/09/25 07:33:09;;;;;;;11.30;8.27;;;;;;;14.12;89.16;101196.00;6221545;28;20233;-77
2022/09/25 07:36:30;;;;;;;9.77;8.03;;;;;;;14.06;89.24;101204.75;6195547;28;20250;-78
2022/09/25 07:39:51;;;;;;;10.00;8.57;;;;;;;14.05;89.01;101197.63;6186374;28;20354;-78
2022/09/25 07:43:14;;;;;;;9.40;6.97;;;;;;;14.13;88.67;101205.84;6216463;28;20248;-78
2022/09/25 07:46:35;;;;;;;10.67;7.63;;;;;;;14.23;88.62;101212.06;6221038;28;20240;-78
2022/09/25 07:49:57;;;;;;;10.57;7.47;;;;;;;14.20;88.58;101206.97;6212188;28;20224;-78
2022/09/25 07:53:18;;;;;;;9.83;7.03;;;;;;;14.14;88.60;101212.97;6219885;28;20269;-78
2022/09/25 07:56:39;;;;;;;12.20;8.23;;;;;;;14.18;88.56;101198.13;6227863;28;20236;-78
2022/09/25 08:00:03;;;;;;;10.07;7.40;;;;;;;14.18;88.53;101197.28;6212383;28;20229;-78
2022/09/25 08:03:32;;;;;;;8.70;7.00;;;;;;;14.12;88.89;101201.44;6220663;28;20614;-78
2022/09/25 08:06:53;;;;;;;7.30;5.60;;;;;;;14.14;88.90;101207.53;6220128;28;20228;-77
2022/09/25 08:10:14;;;;;;;9.43;6.00;;;;;;;14.16;89.23;101210.97;6219252;28;20228;-77
2022/09/25 08:13:37;;;;;;;5.37;4.27;;;;;;;14.15;88.72;101213.84;6184354;28;20607;-77
2022/09/25 08:16:59;;;;;;;6.10;4.43;;;;;;;14.08;89.18;101210.88;6199244;28;20225;-77
2022/09/25 08:20:20;;;;;;;5.07;3.40;;;;;;;14.04;89.21;101212.16;6185477;28;20241;-79
2022/09/25 08:23:42;;;;;;;2.60;2.30;;;;;;;13.95;89.57;101213.09;6197395;28;20228;-78
2022/09/25 08:27:03;;;;;;;2.90;2.60;;;;;;;14.03;89.62;101215.03;6185110;28;20351;-78
2022/09/25 08:30:25;;;;;;;3.23;2.07;;;;;;;14.05;89.32;101213.03;6214164;28;20548;-79
2022/09/25 08:33:48;;;;;;;4.17;2.67;;;;;;;14.02;89.63;101214.19;6211796;28;20606;-79
2022/09/25 08:37:09;;;;;;;2.43;1.80;;;;;;;14.03;89.77;101218.63;6205783;28;20232;-76
2022/09/25 08:40:32;;;;;;;2.07;1.73;;;;;;;14.46;89.84;101209.00;6188536;28;20241;-75
2022/09/25 08:43:59;;;;;;;19.77;14.87;;;;;;;14.66;89.15;101214.13;6203329;28;20225;-80
2022/09/25 08:51:05;;;;;;;107.60;97.30;;;;;;;15.14;86.99;101205.56;6198723;28;20236;-72
2022/09/25 08:54:29;;;;;;;156.83;121.70;;;;;;;15.06;86.71;101206.34;6212685;28;20345;-73
2022/09/25 08:57:54;;;;;;;344.20;311.50;;;;;;;15.23;86.62;101215.47;6208599;28;21886;-75
2022/09/25 09:01:18;;;;;;;135.10;121.53;;;;;;;15.37;85.56;101211.34;6201045;28;20534;-78
2022/09/25 09:04:45;;;;;;;13.80;12.27;;;;;;;15.21;83.17;101207.50;6218435;28;20249;-74
2022/09/25 09:08:12;;;;;;;4.67;3.67;;;;;;;14.94;85.00;101210.31;6199837;28;20585;-74
2022/09/25 09:11:39;;;;;;;3.00;2.37;;;;;;;14.85;85.59;101207.69;6204924;28;20225;-74
2022/09/25 09:15:14;;;;;;;2.77;2.23;;;;;;;14.54;86.18;101212.63;6176446;28;20316;-74
2022/09/25 09:18:38;;;;;;;2.77;1.93;;;;;;;14.44;86.90;101217.25;6224902;28;20228;-73
2022/09/25 09:22:06;;;;;;;2.00;1.90;;;;;;;14.26;86.53;101222.63;6231793;28;20610;-74
2022/09/25 09:25:38;;;;;;;1.47;1.37;;;;;;;14.21;86.97;101214.09;6210835;28;20227;-83
2022/09/25 09:29:16;;;;;;;1.60;1.50;;;;;;;14.23;87.05;101220.22;6226836;28;20566;-82
2022/09/25 09:33:06;;;;;;;2.00;1.80;;;;;;;14.26;87.02;101211.78;6226173;28;20354;-76
2022/09/25 09:36:33;;;;;;;1.83;1.53;;;;;;;14.23;86.97;101225.63;6225107;28;20231;-77
2022/09/25 09:40:21;;;;;;;1.83;1.73;;;;;;;14.16;87.04;101216.38;6209671;28;20305;-78
2022/09/25 09:43:54;;;;;;;2.63;2.43;;;;;;;13.99;87.93;101217.22;6226221;28;20240;-77
2022/09/25 09:47:32;;;;;;;4.13;2.70;;;;;;;14.04;87.62;101222.19;6242455;28;20610;-77
2022/09/25 09:51:00;;;;;;;3.47;3.03;;;;;;;13.97;87.83;101224.63;6228455;28;20232;-76
2022/09/25 09:54:27;;;;;;;3.63;2.50;;;;;;;13.92;87.79;101220.66;6220726;28;20242;-76
2022/09/25 09:57:51;;;;;;;2.73;2.33;;;;;;;13.84;88.67;101223.25;6235322;28;20228;-76
2022/09/25 10:01:16;;;;;;;3.63;3.03;;;;;;;13.93;88.31;101222.38;6227635;28;20244;-76
2022/09/25 10:04:41;;;;;;;4.33;3.30;;;;;;;14.02;88.21;101221.44;6230411;28;20256;-76
2022/09/25 10:08:02;;;;;;;3.87;3.27;;;;;;;13.85;88.96;101222.28;6233079;28;20228;-76
2022/09/25 10:11:23;;;;;;;5.67;3.70;;;;;;;13.83;88.21;101221.56;6228382;28;20224;-74
2022/09/25 10:14:47;;;;;;;3.07;2.80;;;;;;;13.95;88.36;101223.94;6227037;28;20520;-76
2022/09/25 10:18:11;;;;;;;3.53;3.13;;;;;;;14.07;88.01;101219.16;6235618;28;20224;-77
2022/09/25 10:21:39;;;;;;;6.13;2.90;;;;;;;13.95;88.35;101210.38;6228180;28;20236;-77
2022/09/25 10:25:01;;;;;;;4.40;3.40;;;;;;;13.96;88.50;101217.50;6223581;28;20641;-77
2022/09/25 10:28:27;;;;;;;3.13;2.83;;;;;;;13.98;88.40;101210.06;6234583;28;20535;-75
2022/09/25 10:31:57;;;;;;;3.10;2.80;;;;;;;13.96;88.04;101219.34;6230199;28;20610;-77
2022/09/25 10:35:22;;;;;;;4.60;2.50;;;;;;;13.89;87.79;101219.13;6232275;28;20319;-77
2022/09/25 10:38:48;;;;;;;4.40;2.20;;;;;;;13.96;88.03;101211.22;6218619;28;20229;-77
2022/09/25 10:42:32;;;;;;;3.17;2.67;;;;;;;14.11;87.49;101209.72;6240237;28;20233;-77
2022/09/25 10:46:06;;;;;;;6.20;2.20;;;;;;;14.22;86.56;101201.38;6216430;28;20233;-76
2022/09/25 10:53:27;;;;;;;3.17;2.67;;;;;;;14.11;87.56;101205.16;6215511;28;20217;-77
2022/09/25 10:56:49;;;;;;;4.70;2.57;;;;;;;14.03;88.34;101206.91;6240651;28;20220;-76
2022/09/25 11:00:21;;;;;;;3.00;2.70;;;;;;;13.74;89.02;101212.47;6234928;28;20270;-77
2022/09/25 11:03:49;;;;;;;2.30;2.10;;;;;;;13.72;89.10;101209.03;6234597;28;20224;-77
2022/09/25 11:07:23;;;;;;;3.70;2.83;;;;;;;13.71;89.14;101207.31;6208922;28;20237;-78
2022/09/25 11:10:50;;;;;;;5.67;2.77;;;;;;;13.78;89.02;101210.31;6208633;28;20232;-78
2022/09/25 11:14:22;;;;;;;2.43;2.20;;;;;;;13.89;89.17;101210.13;6205803;28;20241;-74
2022/09/25 11:17:44;;;;;;;2.50;2.30;;;;;;;13.94;88.95;101213.22;6202368;28;20233;-74
2022/09/25 11:21:27;;;;;;;6.47;2.73;;;;;;;13.97;88.52;101208.38;6206084;28;20905;-74
2022/09/25 11:24:58;;;;;;;3.03;2.00;;;;;;;14.04;88.45;101208.63;6191001;28;20237;-75
2022/09/25 11:28:31;;;;;;;2.87;2.33;;;;;;;14.04;87.97;101209.47;6198692;28;20248;-72
2022/09/25 11:31:58;;;;;;;2.73;2.07;;;;;;;13.98;87.69;101207.34;6225439;28;20240;-72
2022/09/25 11:35:31;;;;;;;3.60;2.23;;;;;;;14.02;87.93;101207.91;6196989;28;20230;-83
2022/09/25 11:42:38;;;;;;;5.10;2.73;;;;;;;14.04;87.13;101214.88;6196546;28;20225;-81
2022/09/25 11:46:07;;;;;;;2.60;2.40;;;;;;;13.97;87.52;101215.66;6214964;28;20237;-85
2022/09/25 11:49:30;;;;;;;4.50;2.73;;;;;;;13.90;87.34;101220.81;6221931;28;20646;-77
2022/09/25 11:53:02;;;;;;;2.87;2.60;;;;;;;13.74;88.16;101212.47;6203773;28;20229;-80
2022/09/25 11:56:31;;;;;;;2.60;2.27;;;;;;;13.57;88.34;101213.22;6217069;28;20233;-77
2022/09/25 12:00:07;;;;;;;2.33;2.13;;;;;;;13.70;87.67;101212.91;6176687;28;20225;-79
2022/09/25 12:03:37;;;;;;;3.10;2.40;;;;;;;13.76;87.24;101210.47;6213904;28;20575;-84
2022/09/25 12:07:42;;;;;;;2.50;1.93;;;;;;;13.91;87.43;101211.69;6228943;28;20293;-90
2022/09/25 12:11:17;;;;;;;1.90;1.70;;;;;;;13.82;86.73;101207.16;6203277;28;20233;-78
2022/09/25 12:14:45;;;;;;;2.57;2.23;;;;;;;13.92;86.55;101196.25;6231112;28;20260;-76
2022/09/25 12:18:13;;;;;;;3.30;2.83;;;;;;;14.32;85.67;101191.38;6226738;28;20220;-78
2022/09/25 12:21:45;;;;;;;2.30;2.07;;;;;;;14.73;83.79;101187.19;6226596;28;20227;-77
2022/09/25 12:25:19;;;;;;;3.17;1.63;;;;;;;14.67;84.35;101191.41;6223824;28;20305;-77
2022/09/25 12:28:53;;;;;;;4.27;2.33;;;;;;;14.59;85.39;101187.75;6236144;28;20221;-78
2022/09/25 12:32:26;;;;;;;2.20;1.90;;;;;;;14.43;86.22;101192.00;6234025;28;20614;-79
2022/09/25 12:35:55;;;;;;;4.67;2.30;;;;;;;14.40;85.73;101186.03;6221815;28;20232;-83
2022/09/25 12:39:30;;;;;;;2.17;1.97;;;;;;;14.28;86.20;101189.94;6205091;28;20574;-78
2022/09/25 12:42:58;;;;;;;2.63;2.27;;;;;;;14.33;86.04;101182.25;6199754;28;20229;-78
2022/09/25 12:46:30;;;;;;;3.57;1.70;;;;;;;14.42;85.39;101175.88;6222030;28;20256;-76
2022/09/25 12:49:58;;;;;;;3.77;3.30;;;;;;;14.43;84.83;101172.16;6178094;28;20232;-82
2022/09/25 12:53:31;;;;;;;2.50;2.30;;;;;;;14.37;85.05;101173.63;6208367;28;20319;-84
2022/09/25 13:01:19;;;;;;;2.23;1.70;;;;;;;14.73;83.99;101165.47;6227405;28;20223;-86
2022/09/25 13:04:54;;;;;;;3.03;2.67;;;;;;;14.69;83.73;101169.53;6215572;28;20255;-78
2022/09/25 13:08:22;;;;;;;4.63;2.27;;;;;;;14.45;83.55;101172.88;6218761;28;20632;-84
2022/09/25 13:11:49;;;;;;;3.10;1.80;;;;;;;14.38;83.75;101175.34;6225680;28;20767;-77
2022/09/25 13:15:17;;;;;;;1.80;1.67;;;;;;;14.47;83.30;101170.00;6200868;28;20465;-80
2022/09/25 13:18:39;;;;;;;2.33;1.70;;;;;;;14.55;83.86;101156.50;6208196;28;20241;-78
2022/09/25 13:22:04;;;;;;;7.63;2.17;;;;;;;14.43;84.04;101153.19;6196408;28;20320;-79
2022/09/25 13:25:28;;;;;;;3.67;2.20;;;;;;;14.53;84.21;101145.81;6220997;28;20221;-82
2022/09/25 13:28:53;;;;;;;4.27;1.47;;;;;;;14.61;84.10;101139.59;6217386;28;20244;-83
2022/09/25 13:32:21;;;;;;;1.23;1.10;;;;;;;14.66;82.41;101137.28;6202547;28;20323;-81
2022/09/25 13:35:42;;;;;;;3.63;2.53;;;;;;;14.65;82.89;101135.56;6200123;28;20244;-77
2022/09/25 13:42:46;;;;;;;1.57;1.47;;;;;;;14.77;83.16;101135.16;6206179;28;20320;-79
2022/09/25 13:46:24;;;;;;;1.87;1.50;;;;;;;14.66;82.39;101127.28;6199330;28;20225;-84
2022/09/25 13:49:51;;;;;;;3.60;1.63;;;;;;;14.66;82.37;101137.28;6240671;28;20229;-84
2022/09/25 13:53:47;;;;;;;2.10;1.33;;;;;;;14.69;82.22;101128.81;6219340;28;20226;-78
2022/09/25 13:57:09;;;;;;;1.67;1.23;;;;;;;14.74;81.72;101121.06;6230886;28;20228;-80
2022/09/25 14:00:54;;;;;;;2.03;1.10;;;;;;;14.66;81.99;101126.44;6213837;28;20229;-80
2022/09/25 14:04:39;;;;;;;2.30;1.33;;;;;;;14.70;82.71;101128.69;6226650;28;20225;-81
2022/09/25 14:08:12;;;;;;;3.30;2.43;;;;;;;14.67;82.46;101120.84;6216091;28;20326;-83
2022/09/25 14:11:36;;;;;;;1.60;1.30;;;;;;;14.59;82.05;101120.78;6215321;28;21044;-81
2022/09/25 14:15:04;;;;;;;2.97;1.33;;;;;;;14.55;82.22;101124.81;6215051;28;20237;-80
2022/09/25 14:18:35;;;;;;;3.07;1.47;;;;;;;14.50;82.61;101121.69;6226214;28;20236;-81
2022/09/25 14:21:57;;;;;;;2.10;1.50;;;;;;;14.56;82.35;101125.66;6204422;28;20216;-81
2022/09/25 14:25:31;;;;;;;2.63;1.33;;;;;;;14.63;82.28;101122.16;6214780;28;20324;-82
2022/09/25 14:28:55;;;;;;;1.63;1.20;;;;;;;14.64;82.58;101114.88;6228782;28;20240;-84
2022/09/25 14:40:21;;;;;;;1.27;1.10;;;;;;;14.77;81.57;101110.75;6221454;28;20228;-87
2022/09/25 14:43:55;;;;;;;1.80;1.07;;;;;;;14.91;81.55;101109.34;6237560;28;20245;-81
2022/09/25 14:47:26;;;;;;;1.77;1.20;;;;;;;14.97;81.22;101106.84;6242917;28;20228;-88
2022/09/25 14:50:51;;;;;;;1.37;1.27;;;;;;;15.00;80.93;101095.66;6232510;28;20228;-78
2022/09/25 14:54:15;;;;;;;3.13;1.27;;;;;;;15.30;80.99;101094.31;6222701;28;20236;-74
2022/09/25 14:57:37;;;;;;;1.53;1.30;;;;;;;15.90;79.13;101085.09;6229702;28;20225;-81
2022/09/25 15:01:10;;;;;;;2.13;1.10;;;;;;;16.82;76.70;101076.72;6198897;28;21116;-80
2022/09/25 15:04:33;;;;;;;1.00;0.90;;;;;;;17.44;72.45;101067.72;6205740;28;20236;-77
2022/09/25 15:07:57;;;;;;;2.08;0.90;;;;;;;17.56;71.86;101066.34;6203921;28;20714;-75
2022/09/25 15:11:20;;;;;;;2.57;1.10;;;;;;;17.36;70.97;101058.72;6202714;28;20229;-79
2022/09/25 15:14:57;;;;;;;2.53;1.00;;;;;;;17.83;70.04;101058.75;6205224;28;20237;-76
2022/09/25 15:18:19;;;;;;;6.50;1.03;;;;;;;17.90;69.61;101057.00;6199069;28;20233;-76
2022/09/25 15:21:43;;;;;;;1.30;1.00;;;;;;;17.58;70.24;101054.44;6197565;28;20256;-76
2022/09/25 15:25:07;;;;;;;1.70;1.60;;;;;;;17.52;68.84;101048.66;6219384;28;20256;-77
2022/09/25 15:28:28;;;;;;;2.03;1.10;;;;;;;17.49;69.12;101049.00;6229176;28;20274;-76
2022/09/25 15:31:50;;;;;;;1.10;0.70;;;;;;;17.12;70.17;101053.38;6224529;28;20622;-77
2022/09/25 15:35:18;;;;;;;1.30;0.93;;;;;;;16.79;69.75;101056.13;6222063;28;20230;-77
2022/09/25 15:38:39;;;;;;;1.33;0.87;;;;;;;16.31;70.09;101047.94;6221967;28;20323;-76
2022/09/25 15:42:00;;;;;;;2.10;0.93;;;;;;;15.96;71.26;101059.09;6213035;28;20237;-75
2022/09/25 15:45:46;;;;;;;0.70;0.52;;;;;;;15.93;72.42;101045.84;6218005;28;20232;-76
2022/09/25 15:49:07;;;;;;;0.95;0.88;;;;;;;15.63;73.70;101047.28;6195030;28;20895;-75
2022/09/25 15:52:32;;;;;;;5.90;3.27;;;;;;;15.74;73.59;101052.44;6190146;28;20225;-75
2022/09/25 15:56:04;;;;;;;5.78;3.65;;;;;;;16.54;70.81;101042.72;6219590;28;20693;-75
2022/09/25 15:59:29;;;;;;;1.87;1.37;;;;;;;16.91;69.52;101039.44;6213566;28;20231;-74
2022/09/25 16:06:39;;;;;;;1.73;1.03;;;;;;;16.65;65.62;101042.34;6203568;28;20237;-76
2022/09/25 16:10:04;;;;;;;3.50;1.25;;;;;;;16.47;64.77;101049.81;6207644;28;20309;-76
2022/09/25 16:13:25;;;;;;;0.90;0.50;;;;;;;16.04;63.79;101041.97;6191884;28;20559;-76
2022/09/25 16:16:48;;;;;;;1.67;0.80;;;;;;;16.00;65.02;101034.13;6194738;28;20237;-75
2022/09/25 16:20:30;;;;;;;4.50;0.88;;;;;;;16.02;65.57;101042.13;6194409;28;20233;-75
2022/09/25 16:23:56;;;;;;;3.47;1.23;;;;;;;15.70;66.31;101033.88;6213966;28;20248;-75
2022/09/25 16:27:25;;;;;;;1.50;0.80;;;;;;;15.36;65.36;101038.47;6218557;28;20232;-76
2022/09/25 16:30:48;;;;;;;2.57;1.30;;;;;;;15.15;66.07;101045.16;6221715;28;20540;-77
2022/09/25 16:34:22;;;;;;;3.60;1.60;;;;;;;14.98;66.73;101037.06;6229408;28;20220;-75